Time;durP1;ratioP1;P1;durP2;ratioP2;P2;SDS_P1;SDS_P2;PMS_P1;PMS_P2;Temp;Humidity;BMP_temperature;BMP_pressure;BME280_temperature;BME280_humidity;BME280_pressure;Samples;Min_cycle;Max_cycle;Signal;HPM_P1;HPM_P2
2023/06/21 00:11:54;;;;;;;;;;;;;;;25.03;46.76;100276.66;41654964;28;19936;-78
2023/06/21 00:31:54;;;;;;;;;;;;;;;24.93;47.54;100290.78;41685296;28;20023;-78
2023/06/21 00:51:58;;;;;;;;;;;;;;;24.90;48.62;100301.69;41671563;28;20403;-78
2023/06/21 01:12:04;;;;;;;;;;;;;;;24.72;50.64;100300.78;41654926;28;19932;-80
2023/06/21 01:32:08;;;;;;;;;;;;;;;24.77;50.94;100315.22;41668638;28;19933;-77
2023/06/21 01:52:09;;;;;;;;;;;;;;;24.72;50.64;100298.94;41658098;28;19929;-78
2023/06/21 02:12:10;;;;;;;;;;;;;;;24.50;51.46;100317.78;41665824;28;19925;-79
2023/06/21 02:32:10;;;;;;;;;;;;;;;24.42;52.05;100313.19;41688798;28;19925;-79
2023/06/21 02:52:11;;;;;;;;;;;;;;;24.25;52.48;100320.03;41688252;28;19925;-79
2023/06/21 03:12:12;;;;;;;;;;;;;;;24.26;52.40;100305.84;41717855;28;19977;-77
2023/06/21 03:32:12;;;;;;;;;;;;;;;24.18;52.78;100317.13;41703165;28;20347;-77
2023/06/21 03:52:12;;;;;;;;;;;;;;;24.17;52.81;100301.38;41715307;28;19924;-77
2023/06/21 04:12:13;;;;;;;;;;;;;;;24.03;52.79;100316.72;41670591;28;19971;-79
2023/06/21 04:32:13;;;;;;;;;;;;;;;24.08;51.98;100335.66;41690544;28;19939;-77
2023/06/21 04:52:13;;;;;;;;;;;;;;;24.12;51.52;100383.81;41642095;28;19947;-77
2023/06/21 05:12:14;;;;;;;;;;;;;;;24.20;51.89;100376.03;41633980;28;19925;-79
2023/06/21 05:32:14;;;;;;;;;;;;;;;24.28;51.70;100356.81;41674573;28;19929;-77
2023/06/21 05:52:15;;;;;;;;;;;;;;;24.40;51.69;100378.66;41657780;28;19964;-85
2023/06/21 06:12:18;;;;;;;;;;;;;;;24.50;51.59;100373.34;41649422;28;19963;-81
2023/06/21 06:32:19;;;;;;;;;;;;;;;24.54;51.86;100380.06;41691709;28;19939;-79
2023/06/21 06:52:19;;;;;;;;;;;;;;;24.67;52.02;100366.53;41718333;28;19951;-79
2023/06/21 07:12:19;;;;;;;;;;;;;;;24.80;51.53;100369.72;41703223;28;20407;-80
2023/06/21 07:32:20;;;;;;;;;;;;;;;24.92;51.59;100363.25;41713358;28;20027;-83
2023/06/21 07:52:20;;;;;;;;;;;;;;;25.06;51.57;100369.06;41711711;28;20776;-80
2023/06/21 08:12:21;;;;;;;;;;;;;;;25.10;51.23;100351.94;41690600;28;19960;-78
2023/06/21 08:32:21;;;;;;;;;;;;;;;25.15;50.70;100373.50;41730242;28;20305;-78
2023/06/21 08:52:24;;;;;;;;;;;;;;;25.20;50.78;100391.63;41713324;28;19929;-79
2023/06/21 09:12:26;;;;;;;;;;;;;;;25.25;50.44;100389.38;41685729;28;20080;-78
2023/06/21 09:32:26;;;;;;;;;;;;;;;25.30;50.41;100375.69;41701103;28;19939;-77
2023/06/21 09:52:27;;;;;;;;;;;;;;;25.35;50.59;100391.97;41698281;28;19932;-80
2023/06/21 10:12:27;;;;;;;;;;;;;;;25.40;50.17;100380.00;41740289;28;19932;-78
2023/06/21 10:32:28;;;;;;;;;;;;;;;25.45;50.38;100387.50;41771955;28;19925;-78
2023/06/21 10:52:29;;;;;;;;;;;;;;;25.49;50.29;100402.13;41772514;28;19929;-78
2023/06/21 11:12:30;;;;;;;;;;;;;;;25.50;50.31;100398.50;41738860;28;19925;-78
2023/06/21 11:32:30;;;;;;;;;;;;;;;25.54;50.31;100410.47;41765645;28;19948;-79
2023/06/21 11:52:32;;;;;;;;;;;;;;;25.61;50.29;100386.88;41782628;28;19979;-81
2023/06/21 12:12:33;;;;;;;;;;;;;;;25.67;50.55;100357.09;41727657;28;19964;-80
2023/06/21 12:32:35;;;;;;;;;;;;;;;25.78;50.63;100365.81;41727663;28;19928;-80
2023/06/21 12:52:35;;;;;;;;;;;;;;;25.88;50.65;100348.84;41716826;28;20011;-80
2023/06/21 13:12:38;;;;;;;;;;;;;;;25.97;50.44;100322.41;41714035;28;19924;-79
2023/06/21 13:32:39;;;;;;;;;;;;;;;26.07;50.12;100319.72;41730364;28;19932;-80
2023/06/21 13:52:39;;;;;;;;;;;;;;;26.13;49.88;100289.91;41712653;28;20389;-80
2023/06/21 14:12:40;;;;;;;;;;;;;;;26.23;50.22;100285.31;41715483;28;19929;-80
2023/06/21 14:32:41;;;;;;;;;;;;;;;26.30;49.70;100310.25;41696029;28;19933;-80
2023/06/21 14:52:44;;;;;;;;;;;;;;;26.39;50.00;100334.22;41752082;28;19935;-80
2023/06/21 15:12:44;;;;;;;;;;;;;;;26.45;49.78;100325.63;41756386;28;19933;-80
2023/06/21 15:32:45;;;;;;;;;;;;;;;26.49;49.70;100303.09;41758590;28;19935;-80
2023/06/21 15:52:45;;;;;;;;;;;;;;;26.53;49.69;100312.41;41736452;28;19929;-80
2023/06/21 16:12:50;;;;;;;;;;;;;;;26.57;50.63;100304.97;41740069;28;20637;-82
2023/06/21 16:32:50;;;;;;;;;;;;;;;26.64;50.42;100333.38;41702346;28;19933;-82
2023/06/21 16:52:50;;;;;;;;;;;;;;;26.73;50.66;100323.66;41707434;28;19986;-81
2023/06/21 17:12:51;;;;;;;;;;;;;;;26.76;50.61;100335.84;41704933;28;19932;-81
2023/06/21 17:32:57;;;;;;;;;;;;;;;26.74;50.96;100329.81;41688359;28;20003;-80
2023/06/21 17:52:57;;;;;;;;;;;;;;;26.73;51.80;100374.09;41687363;28;20018;-78
2023/06/21 18:13:00;;;;;;;;;;;;;;;26.70;51.55;100353.19;41702459;28;20312;-75
2023/06/21 18:33:00;;;;;;;;;;;;;;;26.71;52.03;100389.41;41691406;28;20011;-74
2023/06/21 18:53:01;;;;;;;;;;;;;;;26.67;51.65;100407.47;41716454;28;20341;-81
2023/06/21 19:13:01;;;;;;;;;;;;;;;26.63;52.01;100411.41;41711006;28;20353;-82
2023/06/21 19:33:02;;;;;;;;;;;;;;;26.61;52.27;100428.47;41728518;28;20988;-76
2023/06/21 19:53:02;;;;;;;;;;;;;;;26.58;52.98;100548.31;41715307;28;19987;-75
2023/06/21 20:13:02;;;;;;;;;;;;;;;26.55;54.48;100535.31;41707910;28;20368;-81
2023/06/21 20:33:03;;;;;;;;;;;;;;;26.47;53.89;100526.28;41726876;28;19925;-84
2023/06/21 20:53:03;;;;;;;;;;;;;;;26.41;54.52;100569.34;41733810;28;20011;-82
2023/06/21 21:13:05;;;;;;;;;;;;;;;26.38;55.32;100590.91;41725660;28;20572;-86
2023/06/21 21:33:06;;;;;;;;;;;;;;;26.31;55.91;100557.97;41700949;28;19920;-85
2023/06/21 21:53:06;;;;;;;;;;;;;;;26.24;55.93;100555.06;41734822;28;20451;-83
2023/06/21 22:13:09;;;;;;;;;;;;;;;26.21;56.40;100520.88;41719339;28;19932;-86
2023/06/21 22:33:10;;;;;;;;;;;;;;;26.14;56.15;100555.13;41760615;28;19931;-82
2023/06/21 22:53:10;;;;;;;;;;;;;;;26.10;56.71;100527.22;41695610;28;20424;-83
2023/06/21 23:13:11;;;;;;;;;;;;;;;26.07;57.00;100550.56;41703133;28;19929;-81
2023/06/21 23:33:11;;;;;;;;;;;;;;;26.02;57.03;100594.28;41663068;28;19932;-83
2023/06/21 23:53:11;;;;;;;;;;;;;;;25.99;56.82;100552.09;41684332;28;20900;-84
